createdAt,value
2022-08-24T05:32:08.273Z,3.40
2022-08-24T05:34:36.470Z,3.38
2022-08-24T05:37:04.845Z,3.33
2022-08-24T05:39:32.786Z,2.78
2022-08-24T05:42:00.958Z,2.53
2022-08-24T05:44:31.117Z,2.80
2022-08-24T05:46:59.622Z,2.60
2022-08-24T05:49:28.155Z,2.67
2022-08-24T05:51:55.463Z,2.40
2022-08-24T05:54:23.488Z,2.47
2022-08-24T05:56:51.514Z,2.00
2022-08-24T05:59:19.733Z,2.00
2022-08-24T06:01:47.324Z,2.35
2022-08-24T06:04:14.944Z,2.08
2022-08-24T06:06:42.840Z,1.88
2022-08-24T06:09:11.748Z,2.22
2022-08-24T06:11:40.289Z,2.05
2022-08-24T06:14:12.903Z,1.80
2022-08-24T06:16:43.388Z,2.28
2022-08-24T06:19:13.220Z,2.40
2022-08-24T06:21:41.199Z,2.95
2022-08-24T06:24:08.815Z,2.67
2022-08-24T06:26:56.744Z,2.78
2022-08-24T06:29:23.967Z,2.80
2022-08-24T06:31:54.633Z,2.75
2022-08-24T06:34:26.263Z,2.72
2022-08-24T06:36:53.955Z,3.22
2022-08-24T06:39:21.214Z,3.60
2022-08-24T06:41:48.436Z,2.85
2022-08-24T06:44:15.781Z,2.75
2022-08-24T06:46:43.070Z,2.58
2022-08-24T06:49:10.311Z,2.38
2022-08-24T06:51:37.547Z,2.63
2022-08-24T06:54:05.140Z,2.28
2022-08-24T06:56:32.347Z,2.05
2022-08-24T06:59:03.190Z,2.53
2022-08-24T07:01:31.263Z,1.98
2022-08-24T07:03:58.539Z,2.50
2022-08-24T07:06:26.667Z,2.45
2022-08-24T07:08:56.423Z,2.28
2022-08-24T07:11:25.020Z,2.20
2022-08-24T07:13:52.417Z,2.22
2022-08-24T07:16:21.272Z,2.25
2022-08-24T07:18:49.831Z,2.55
2022-08-24T07:21:19.714Z,2.10
2022-08-24T07:23:48.841Z,2.25
2022-08-24T07:26:21.279Z,2.00
2022-08-24T07:28:59.434Z,2.65
2022-08-24T07:31:29.995Z,2.05
2022-08-24T07:33:59.315Z,2.65
2022-08-24T07:36:28.366Z,2.22
2022-08-24T07:38:57.307Z,2.80
2022-08-24T07:44:14.870Z,3.22
2022-08-24T07:46:42.287Z,2.38
2022-08-24T07:49:21.493Z,2.95
2022-08-24T07:51:58.724Z,4.40
2022-08-24T07:54:28.675Z,2.47
2022-08-24T07:56:56.376Z,3.13
2022-08-24T07:59:23.715Z,2.60
2022-08-24T08:01:51.438Z,3.80
2022-08-24T08:04:22.015Z,3.15
2022-08-24T08:06:49.376Z,3.20
2022-08-24T08:09:18.151Z,2.20
2022-08-24T08:11:45.393Z,3.20
2022-08-24T08:14:14.830Z,2.42
2022-08-24T08:16:42.380Z,1.50
2022-08-24T08:19:10.727Z,1.90
2022-08-24T08:22:09.087Z,1.92
2022-08-24T08:24:39.791Z,1.38
2022-08-24T08:27:07.074Z,2.20
2022-08-24T08:29:35.476Z,1.65
2022-08-24T08:32:03.100Z,1.50
2022-08-24T08:34:31.498Z,1.45
2022-08-24T08:37:00.116Z,1.27
2022-08-24T08:39:27.885Z,1.27
2022-08-24T08:42:22.066Z,1.65
2022-08-24T08:45:14.722Z,1.00
2022-08-24T08:50:55.897Z,1.40
2022-08-24T08:53:57.888Z,1.50
2022-08-24T08:56:40.880Z,1.20
2022-08-24T09:02:17.703Z,1.38
2022-08-24T09:05:23.949Z,1.23
2022-08-24T09:08:10.792Z,1.20
2022-08-24T09:14:00.442Z,1.05
2022-08-24T09:16:56.217Z,1.90
2022-08-24T09:19:54.096Z,1.10
2022-08-24T09:22:22.346Z,1.20
2022-08-24T09:28:00.366Z,0.82
2022-08-24T09:30:38.800Z,1.10
2022-08-24T09:33:42.803Z,1.17
2022-08-24T09:36:32.778Z,1.30
2022-08-24T09:39:26.988Z,1.23
2022-08-24T09:42:27.039Z,1.17
2022-08-24T09:45:25.348Z,1.20
2022-08-24T09:48:27.882Z,0.85
2022-08-24T09:54:36.050Z,1.35
2022-08-24T09:57:44.100Z,1.30
2022-08-24T10:00:24.875Z,0.80
2022-08-24T10:03:36.178Z,0.90
2022-08-24T10:06:44.985Z,1.13
2022-08-24T10:09:40.213Z,1.55
2022-08-24T10:12:35.705Z,1.25
2022-08-24T10:15:09.251Z,1.77
2022-08-24T10:18:07.108Z,1.10
2022-08-24T10:21:08.717Z,1.05
2022-08-24T10:24:15.747Z,2.00
2022-08-24T10:27:08.740Z,1.10
2022-08-24T10:33:03.593Z,0.80
2022-08-24T10:36:10.716Z,0.85
2022-08-24T10:39:36.991Z,1.15
2022-08-24T10:42:53.941Z,1.05
2022-08-24T10:46:02.957Z,0.80
2022-08-24T10:48:47.686Z,0.80
2022-08-24T10:51:46.327Z,0.80
2022-08-24T10:54:13.892Z,1.58
2022-08-24T10:57:10.305Z,1.17
2022-08-24T10:59:58.853Z,1.13
2022-08-24T11:02:33.145Z,1.23
2022-08-24T11:05:05.944Z,1.08
2022-08-24T11:07:34.662Z,0.88
2022-08-24T11:10:06.655Z,1.50
2022-08-24T11:12:39.418Z,1.00
2022-08-24T11:15:26.329Z,1.00
2022-08-24T11:17:57.012Z,2.42
2022-08-24T11:20:29.510Z,1.40
2022-08-24T11:25:38.404Z,1.23
2022-08-24T11:28:32.165Z,1.10
2022-08-24T11:31:00.817Z,1.38
2022-08-24T11:33:46.356Z,1.00
2022-08-24T11:36:23.522Z,0.98
2022-08-24T11:39:27.733Z,1.75
2022-08-24T11:42:34.789Z,1.02
2022-08-24T11:45:12.488Z,1.33
2022-08-24T11:53:28.009Z,1.10
2022-08-24T11:56:25.755Z,1.35
2022-08-24T11:59:04.742Z,1.00
2022-08-24T12:01:44.845Z,1.58
2022-08-24T12:04:52.099Z,1.23
2022-08-24T12:07:44.600Z,1.02
2022-08-24T12:10:46.537Z,1.95
2022-08-24T12:13:43.085Z,1.33
2022-08-24T12:16:28.935Z,1.23
2022-08-24T12:19:03.267Z,1.48
2022-08-24T12:21:37.821Z,1.20
2022-08-24T12:24:13.142Z,1.40
2022-08-24T12:26:46.021Z,1.20
2022-08-24T12:29:38.608Z,1.02
2022-08-24T12:32:18.964Z,1.10
2022-08-24T12:34:58.576Z,1.35
2022-08-24T12:37:32.821Z,1.35
2022-08-24T12:40:25.979Z,1.60
2022-08-24T12:43:06.118Z,1.58
2022-08-24T12:45:33.557Z,1.38
2022-08-24T12:53:54.393Z,1.23
2022-08-24T12:56:52.128Z,1.30
2022-08-24T12:59:44.003Z,1.20
2022-08-24T13:07:40.502Z,1.52
2022-08-24T13:10:16.500Z,1.30
2022-08-24T13:15:46.824Z,1.35
2022-08-24T13:23:29.639Z,1.50
2022-08-24T13:26:17.799Z,1.13
2022-08-24T13:28:48.556Z,1.10
2022-08-24T13:31:27.131Z,1.30
2022-08-24T13:37:10.727Z,1.10
2022-08-24T13:39:51.385Z,2.83
2022-08-24T13:42:31.208Z,1.00
2022-08-24T13:45:21.377Z,1.10
2022-08-24T13:51:13.948Z,1.02
2022-08-24T13:54:18.845Z,1.27
2022-08-24T14:00:08.110Z,1.27
2022-08-24T14:03:14.384Z,1.08
2022-08-24T14:06:20.593Z,0.95
2022-08-24T14:09:22.928Z,1.38
2022-08-24T14:12:20.518Z,1.38
2022-08-24T14:15:07.002Z,1.10
2022-08-24T14:17:54.678Z,1.10
2022-08-24T14:23:25.507Z,1.35
2022-08-24T14:26:33.111Z,1.60
2022-08-24T14:34:57.757Z,1.00
2022-08-24T14:37:56.766Z,2.00
2022-08-24T14:40:50.016Z,1.10
2022-08-24T14:46:23.292Z,1.30
2022-08-24T14:49:07.857Z,0.95
2022-08-24T14:52:07.995Z,0.93
2022-08-24T14:58:23.783Z,1.48
2022-08-24T15:04:06.663Z,1.15
2022-08-24T15:06:48.245Z,0.95
2022-08-24T15:12:13.566Z,1.10
2022-08-24T15:14:48.290Z,1.48
2022-08-24T15:17:26.015Z,0.77
2022-08-24T15:20:06.360Z,1.10
2022-08-24T15:22:46.591Z,1.20
2022-08-24T15:25:30.096Z,1.17
2022-08-24T15:28:10.873Z,1.33
2022-08-24T15:30:41.370Z,1.20
2022-08-24T15:33:17.205Z,1.05
2022-08-24T15:35:50.302Z,1.48
2022-08-24T15:38:21.998Z,1.08
2022-08-24T15:41:02.041Z,0.90
2022-08-24T15:43:29.552Z,1.38
2022-08-24T15:45:57.249Z,1.27
2022-08-24T15:48:26.053Z,1.60
2022-08-24T15:50:55.978Z,1.30
2022-08-24T15:56:58.138Z,1.40
